Time;durP1;ratioP1;P1;durP2;ratioP2;P2;SDS_P1;SDS_P2;PMS_P1;PMS_P2;Temp;Humidity;BMP_temperature;BMP_pressure;BME280_temperature;BME280_humidity;BME280_pressure;Samples;Min_cycle;Max_cycle;Signal;HPM_P1;HPM_P2
2023/07/31 00:00:30;;;;;;;2.35;1.15;;;;;;;;;;5008736;28;20056;-80
2023/07/31 00:02:55;;;;;;;4.22;1.45;;;;;;;;;;5037469;28;20037;-80
2023/07/31 00:05:21;;;;;;;1.35;1.23;;;;;;;;;;5018677;28;20030;-80
2023/07/31 00:07:46;;;;;;;4.15;1.50;;;;;;;;;;5022950;28;20036;-80
2023/07/31 00:10:12;;;;;;;4.65;1.40;;;;;;;;;;5033125;28;20034;-78
2023/07/31 00:12:43;;;;;;;3.53;1.33;;;;;;;;;;5034374;28;20028;-80
2023/07/31 00:15:08;;;;;;;2.67;1.00;;;;;;;;;;5022371;28;20025;-79
2023/07/31 00:17:34;;;;;;;1.85;1.10;;;;;;;;;;5008164;28;20036;-80
2023/07/31 00:19:59;;;;;;;3.22;1.33;;;;;;;;;;5021620;28;20039;-80
2023/07/31 00:22:25;;;;;;;4.00;1.70;;;;;;;;;;5022695;28;20083;-79
2023/07/31 00:24:50;;;;;;;3.40;1.30;;;;;;;;;;5022809;28;20029;-80
2023/07/31 00:27:15;;;;;;;1.52;1.00;;;;;;;;;;5024068;28;20053;-80
2023/07/31 00:29:41;;;;;;;2.72;1.55;;;;;;;;;;5025743;28;20116;-79
2023/07/31 00:32:06;;;;;;;4.97;1.50;;;;;;;;;;5010066;28;20032;-79
2023/07/31 00:34:32;;;;;;;1.33;1.10;;;;;;;;;;5024557;28;20750;-79
2023/07/31 00:36:57;;;;;;;1.52;1.15;;;;;;;;;;5020638;28;20033;-79
2023/07/31 00:39:22;;;;;;;1.92;1.35;;;;;;;;;;5023264;28;20061;-80
2023/07/31 00:41:48;;;;;;;3.33;1.48;;;;;;;;;;4996114;28;20063;-79
2023/07/31 00:44:13;;;;;;;3.40;1.73;;;;;;;;;;5020043;28;20121;-80
2023/07/31 00:46:38;;;;;;;1.85;0.93;;;;;;;;;;5023272;28;20658;-82
2023/07/31 00:49:05;;;;;;;1.98;1.20;;;;;;;;;;5001456;28;20029;-81
2023/07/31 00:51:30;;;;;;;2.30;1.13;;;;;;;;;;5021035;28;20034;-81
2023/07/31 00:53:56;;;;;;;3.53;1.48;;;;;;;;;;5018561;28;20032;-80
2023/07/31 00:56:23;;;;;;;4.47;1.17;;;;;;;;;;5024380;28;20026;-82
2023/07/31 00:58:48;;;;;;;6.65;1.23;;;;;;;;;;5025183;28;20033;-80
2023/07/31 01:01:14;;;;;;;2.05;1.20;;;;;;;;;;5022415;28;20034;-81
2023/07/31 01:03:39;;;;;;;2.67;1.45;;;;;;;;;;5023206;28;20025;-81
2023/07/31 01:06:07;;;;;;;2.72;1.15;;;;;;;;;;5026457;28;21698;-82
2023/07/31 01:08:44;;;;;;;3.22;1.98;;;;;;;;;;5027969;28;20025;-80
2023/07/31 01:11:25;;;;;;;9.27;1.42;;;;;;;;;;5007640;28;20041;-82
2023/07/31 01:13:51;;;;;;;5.35;1.55;;;;;;;;;;5021196;28;20092;-82
2023/07/31 01:16:16;;;;;;;3.75;1.17;;;;;;;;;;5028232;28;20037;-82
2023/07/31 01:18:42;;;;;;;4.68;1.25;;;;;;;;;;5027852;28;20030;-81
2023/07/31 01:21:29;;;;;;;2.13;1.10;;;;;;;;;;5031801;28;20021;-82
2023/07/31 01:24:22;;;;;;;3.47;1.15;;;;;;;;;;5036885;28;20025;-81
2023/07/31 01:26:51;;;;;;;;;;;;;;;;;;5025359;28;20129;-80
2023/07/31 01:29:32;;;;;;;2.20;1.40;;;;;;;;;;5034977;28;20031;-81
2023/07/31 01:32:01;;;;;;;3.47;1.60;;;;;;;;;;5025244;28;20108;-81
2023/07/31 01:34:28;;;;;;;1.88;1.40;;;;;;;;;;5026830;28;20026;-81
2023/07/31 01:36:53;;;;;;;3.70;1.42;;;;;;;;;;5031705;28;20033;-80
2023/07/31 01:39:20;;;;;;;2.80;1.42;;;;;;;;;;5032884;28;20036;-80
2023/07/31 01:41:45;;;;;;;3.15;1.33;;;;;;;;;;5025444;28;20021;-80
2023/07/31 01:44:11;;;;;;;1.63;1.35;;;;;;;;;;5027756;28;20175;-81
2023/07/31 01:46:36;;;;;;;5.45;2.00;;;;;;;;;;5026768;28;20269;-81
2023/07/31 01:49:01;;;;;;;4.57;1.42;;;;;;;;;;5030367;28;20036;-81
2023/07/31 01:51:27;;;;;;;2.58;1.30;;;;;;;;;;5015946;28;20057;-81
2023/07/31 01:53:52;;;;;;;5.50;1.45;;;;;;;;;;5012599;28;20025;-82
2023/07/31 01:56:17;;;;;;;3.58;1.30;;;;;;;;;;5031696;28;20025;-82
2023/07/31 01:58:43;;;;;;;6.32;1.10;;;;;;;;;;5028254;28;20033;-81
2023/07/31 02:01:08;;;;;;;1.80;1.15;;;;;;;;;;5034301;28;20037;-81
2023/07/31 02:03:33;;;;;;;3.42;1.60;;;;;;;;;;5035144;28;20037;-82
2023/07/31 02:05:59;;;;;;;6.43;1.98;;;;;;;;;;5035242;28;20032;-81
2023/07/31 02:08:24;;;;;;;2.47;1.30;;;;;;;;;;5003620;28;20108;-80
2023/07/31 02:10:49;;;;;;;2.67;1.30;;;;;;;;;;5034533;28;20021;-81
2023/07/31 02:13:14;;;;;;;3.10;1.58;;;;;;;;;;5032463;28;20043;-80
2023/07/31 02:15:40;;;;;;;3.58;1.17;;;;;;;;;;5032376;28;20516;-81
2023/07/31 02:18:05;;;;;;;1.75;1.20;;;;;;;;;;5029398;28;20027;-81
2023/07/31 02:20:34;;;;;;;3.33;1.25;;;;;;;;;;5009028;28;20056;-80
2023/07/31 02:22:59;;;;;;;3.08;1.70;;;;;;;;;;5032646;28;20026;-81
2023/07/31 02:25:24;;;;;;;3.90;1.50;;;;;;;;;;5033480;28;20021;-81
2023/07/31 02:27:49;;;;;;;2.05;1.50;;;;;;;;;;5035849;28;20014;-82
2023/07/31 02:30:15;;;;;;;3.50;1.58;;;;;;;;;;5034718;28;20033;-82
2023/07/31 02:32:40;;;;;;;2.85;1.23;;;;;;;;;;5008459;28;20026;-81
2023/07/31 02:35:06;;;;;;;5.00;1.70;;;;;;;;;;5031747;28;20029;-81
2023/07/31 02:37:31;;;;;;;5.15;1.50;;;;;;;;;;5028297;28;20029;-81
2023/07/31 02:39:57;;;;;;;4.38;1.42;;;;;;;;;;5029250;28;20025;-81
2023/07/31 02:42:22;;;;;;;4.15;1.20;;;;;;;;;;5027970;28;20028;-82
2023/07/31 02:44:47;;;;;;;3.03;1.35;;;;;;;;;;5030671;28;20021;-81
2023/07/31 02:47:13;;;;;;;2.13;1.50;;;;;;;;;;5016713;28;20056;-84
2023/07/31 02:49:38;;;;;;;1.85;1.30;;;;;;;;;;5027192;28;20073;-83
2023/07/31 02:52:04;;;;;;;3.40;1.50;;;;;;;;;;5033264;28;20029;-84
2023/07/31 02:54:29;;;;;;;3.38;1.40;;;;;;;;;;5029214;28;20052;-84
2023/07/31 02:56:54;;;;;;;1.92;1.40;;;;;;;;;;5033361;28;20014;-83
2023/07/31 02:59:20;;;;;;;2.67;1.48;;;;;;;;;;5028733;28;20017;-81
2023/07/31 03:01:45;;;;;;;2.75;1.30;;;;;;;;;;5033469;28;20036;-84
2023/07/31 03:04:10;;;;;;;1.55;1.45;;;;;;;;;;5027452;28;20029;-82
2023/07/31 03:06:36;;;;;;;1.65;1.33;;;;;;;;;;5031096;28;20259;-82
2023/07/31 03:09:01;;;;;;;3.22;1.42;;;;;;;;;;5017657;28;20057;-84
2023/07/31 03:11:26;;;;;;;1.63;1.30;;;;;;;;;;5025759;28;20038;-83
2023/07/31 03:13:52;;;;;;;6.38;1.70;;;;;;;;;;5028642;28;20021;-84
2023/07/31 03:16:17;;;;;;;1.63;1.50;;;;;;;;;;5015831;28;20142;-81
2023/07/31 03:18:43;;;;;;;2.05;1.50;;;;;;;;;;5028954;28;20120;-83
2023/07/31 03:21:08;;;;;;;3.60;1.45;;;;;;;;;;5033524;28;20021;-84
2023/07/31 03:23:33;;;;;;;3.40;1.58;;;;;;;;;;5028477;28;20068;-84
2023/07/31 03:26:05;;;;;;;2.67;1.70;;;;;;;;;;5033745;28;20021;-83
2023/07/31 03:28:30;;;;;;;2.30;1.60;;;;;;;;;;5036851;28;20048;-81
2023/07/31 03:30:56;;;;;;;2.20;1.08;;;;;;;;;;5031638;28;20093;-84
2023/07/31 03:33:21;;;;;;;4.25;1.45;;;;;;;;;;5027767;28;20032;-80
2023/07/31 03:35:47;;;;;;;7.53;2.35;;;;;;;;;;5027201;28;20027;-83
2023/07/31 03:38:12;;;;;;;4.13;1.70;;;;;;;;;;5026612;28;20197;-84
2023/07/31 03:40:37;;;;;;;2.53;1.17;;;;;;;;;;5030632;28;20376;-83
2023/07/31 03:43:03;;;;;;;4.32;1.73;;;;;;;;;;5016868;28;20113;-82
2023/07/31 03:45:28;;;;;;;4.28;1.60;;;;;;;;;;5016062;28;20057;-83
2023/07/31 03:47:54;;;;;;;1.67;1.42;;;;;;;;;;5019577;28;20065;-81
2023/07/31 03:50:20;;;;;;;4.25;1.40;;;;;;;;;;5017950;28;20044;-82
2023/07/31 03:52:45;;;;;;;3.50;1.70;;;;;;;;;;5015435;28;20033;-83
2023/07/31 03:55:10;;;;;;;1.95;1.20;;;;;;;;;;5019553;28;20030;-83
2023/07/31 03:57:35;;;;;;;2.13;1.20;;;;;;;;;;5024318;28;20402;-84
2023/07/31 04:00:01;;;;;;;4.47;1.85;;;;;;;;;;5020411;28;20402;-83
2023/07/31 04:02:26;;;;;;;5.35;1.67;;;;;;;;;;5030317;28;20025;-82
2023/07/31 04:04:51;;;;;;;6.32;1.55;;;;;;;;;;5017441;28;20355;-80
2023/07/31 04:07:17;;;;;;;8.07;1.52;;;;;;;;;;5025929;28;20471;-82
2023/07/31 04:09:42;;;;;;;2.30;1.15;;;;;;;;;;5018906;28;20029;-83
2023/07/31 04:12:07;;;;;;;1.85;1.35;;;;;;;;;;5030541;28;20118;-83
2023/07/31 04:14:33;;;;;;;4.57;1.52;;;;;;;;;;5024733;28;20021;-83
2023/07/31 04:16:58;;;;;;;2.28;1.30;;;;;;;;;;5011209;28;20026;-82
2023/07/31 04:19:24;;;;;;;2.35;1.35;;;;;;;;;;5015848;28;20033;-83
2023/07/31 04:21:49;;;;;;;1.77;1.38;;;;;;;;;;5030964;28;20037;-83
2023/07/31 04:24:14;;;;;;;4.32;1.75;;;;;;;;;;5015245;28;20088;-82
2023/07/31 04:26:40;;;;;;;3.05;2.08;;;;;;;;;;5003807;28;20079;-81
2023/07/31 04:29:05;;;;;;;1.48;1.20;;;;;;;;;;5006788;28;20022;-83
2023/07/31 04:31:30;;;;;;;2.45;1.50;;;;;;;;;;5030038;28;20064;-82
2023/07/31 04:33:56;;;;;;;2.50;1.08;;;;;;;;;;5029603;28;20045;-83
2023/07/31 04:36:21;;;;;;;6.45;1.85;;;;;;;;;;5031981;28;20035;-83
2023/07/31 04:38:46;;;;;;;8.15;2.78;;;;;;;;;;5031640;28;20040;-83
2023/07/31 04:41:12;;;;;;;5.78;1.55;;;;;;;;;;5029569;28;20134;-84
2023/07/31 04:43:39;;;;;;;2.70;1.40;;;;;;;;;;5026252;28;20126;-81
2023/07/31 04:46:05;;;;;;;2.83;1.33;;;;;;;;;;5023913;28;20102;-83
2023/07/31 04:48:30;;;;;;;2.55;1.50;;;;;;;;;;5028443;28;20034;-80
2023/07/31 04:50:55;;;;;;;3.25;1.65;;;;;;;;;;5021829;28;20048;-83
2023/07/31 04:53:21;;;;;;;2.70;1.20;;;;;;;;;;5026677;28;20064;-84
2023/07/31 04:55:46;;;;;;;4.25;1.60;;;;;;;;;;5025035;28;20128;-81
2023/07/31 04:58:11;;;;;;;5.63;1.38;;;;;;;;;;5035351;28;20116;-84
2023/07/31 05:00:37;;;;;;;5.63;1.60;;;;;;;;;;5032823;28;20033;-83
2023/07/31 05:03:02;;;;;;;1.20;1.10;;;;;;;;;;5028867;28;20097;-84
2023/07/31 05:05:27;;;;;;;3.08;1.30;;;;;;;;;;5030935;28;20021;-84
2023/07/31 05:07:53;;;;;;;6.13;1.83;;;;;;;;;;5028575;28;20411;-82
2023/07/31 05:10:18;;;;;;;6.57;1.50;;;;;;;;;;5023540;28;20522;-83
2023/07/31 05:12:43;;;;;;;2.47;1.50;;;;;;;;;;5035396;28;20033;-84
2023/07/31 05:15:09;;;;;;;2.90;1.50;;;;;;;;;;5029685;28;20045;-84
2023/07/31 05:17:34;;;;;;;3.42;1.13;;;;;;;;;;5035312;28;20026;-84
2023/07/31 05:20:00;;;;;;;4.28;1.60;;;;;;;;;;5035727;28;20048;-82
2023/07/31 05:22:25;;;;;;;3.97;1.48;;;;;;;;;;5035782;28;20017;-82
2023/07/31 05:24:50;;;;;;;3.53;1.50;;;;;;;;;;5033431;28;20028;-82
2023/07/31 05:27:18;;;;;;;4.10;1.35;;;;;;;;;;5035814;28;20108;-83
2023/07/31 05:29:44;;;;;;;2.28;1.42;;;;;;;;;;5031794;28;20018;-84
2023/07/31 05:32:09;;;;;;;2.95;1.17;;;;;;;;;;5035300;28;20049;-82
2023/07/31 05:34:34;;;;;;;6.10;1.63;;;;;;;;;;5028632;28;20117;-85
2023/07/31 05:36:59;;;;;;;2.75;1.38;;;;;;;;;;5035574;28;20026;-83
2023/07/31 05:39:25;;;;;;;3.13;1.35;;;;;;;;;;5029237;28;20017;-81
2023/07/31 05:41:50;;;;;;;1.63;1.35;;;;;;;;;;5033879;28;20762;-81
2023/07/31 05:44:15;;;;;;;3.65;1.20;;;;;;;;;;5027620;28;20442;-82
2023/07/31 05:46:41;;;;;;;2.50;1.38;;;;;;;;;;5033215;28;20112;-84
2023/07/31 05:49:07;;;;;;;3.28;1.50;;;;;;;;;;5033785;28;20025;-84
2023/07/31 05:51:32;;;;;;;4.47;1.90;;;;;;;;;;5031596;28;20044;-82
2023/07/31 05:53:57;;;;;;;3.97;1.60;;;;;;;;;;5032503;28;20029;-82
2023/07/31 05:56:23;;;;;;;3.97;1.45;;;;;;;;;;5028756;28;20445;-83
2023/07/31 05:58:48;;;;;;;5.13;1.33;;;;;;;;;;5032806;28;20459;-82
2023/07/31 06:01:15;;;;;;;3.53;1.40;;;;;;;;;;5025031;28;20066;-81
2023/07/31 06:03:40;;;;;;;6.47;1.77;;;;;;;;;;5015627;28;20025;-84
2023/07/31 06:06:06;;;;;;;3.67;1.50;;;;;;;;;;5030946;28;20021;-85
2023/07/31 06:08:31;;;;;;;6.85;2.00;;;;;;;;;;5025646;28;20064;-83
2023/07/31 06:10:56;;;;;;;1.95;1.30;;;;;;;;;;5030497;28;20029;-85
2023/07/31 06:13:22;;;;;;;7.03;1.42;;;;;;;;;;5016947;28;20048;-84
2023/07/31 06:15:47;;;;;;;5.07;1.73;;;;;;;;;;5030665;28;20505;-85
2023/07/31 06:18:12;;;;;;;4.90;1.30;;;;;;;;;;5031940;28;20141;-83
2023/07/31 06:20:40;;;;;;;2.55;1.17;;;;;;;;;;5033793;28;20032;-84
2023/07/31 06:23:06;;;;;;;4.70;1.30;;;;;;;;;;5034764;28;20021;-85
2023/07/31 06:25:31;;;;;;;5.05;1.58;;;;;;;;;;5027809;28;20030;-84
2023/07/31 06:27:56;;;;;;;5.68;1.45;;;;;;;;;;5034460;28;20025;-82
2023/07/31 06:30:22;;;;;;;6.40;1.60;;;;;;;;;;5042931;28;20035;-81
2023/07/31 06:32:47;;;;;;;2.95;1.50;;;;;;;;;;5037273;28;20085;-83
2023/07/31 06:35:12;;;;;;;1.20;1.08;;;;;;;;;;5042856;28;20025;-83
2023/07/31 06:37:40;;;;;;;6.03;1.67;;;;;;;;;;5045454;28;20032;-81
2023/07/31 06:40:08;;;;;;;3.10;1.48;;;;;;;;;;5040803;28;20041;-82
2023/07/31 06:42:34;;;;;;;4.68;1.63;;;;;;;;;;5028142;28;20034;-83
2023/07/31 06:45:00;;;;;;;3.20;1.38;;;;;;;;;;5034560;28;20055;-82
2023/07/31 06:47:26;;;;;;;3.05;1.40;;;;;;;;;;5041551;28;20440;-82
2023/07/31 06:49:51;;;;;;;4.20;1.63;;;;;;;;;;5039809;28;20372;-84
2023/07/31 06:52:16;;;;;;;3.78;1.27;;;;;;;;;;5036659;28;20037;-84
2023/07/31 06:54:42;;;;;;;4.55;1.50;;;;;;;;;;5014516;28;20139;-85
2023/07/31 06:57:07;;;;;;;2.38;1.35;;;;;;;;;;5035189;28;20037;-85
2023/07/31 06:59:33;;;;;;;4.00;1.67;;;;;;;;;;5035750;28;20018;-84
2023/07/31 07:01:58;;;;;;;5.00;1.63;;;;;;;;;;5034008;28;20470;-85
2023/07/31 07:04:24;;;;;;;3.38;1.85;;;;;;;;;;5022682;28;20033;-85
2023/07/31 07:06:49;;;;;;;4.63;1.60;;;;;;;;;;5033605;28;20108;-82
2023/07/31 07:09:25;;;;;;;3.63;1.73;;;;;;;;;;5029550;28;20922;-83
2023/07/31 07:11:50;;;;;;;1.60;1.20;;;;;;;;;;5016380;28;20041;-84
2023/07/31 07:14:16;;;;;;;2.38;1.45;;;;;;;;;;5016083;28;20029;-83
2023/07/31 07:16:41;;;;;;;4.07;1.48;;;;;;;;;;5015584;28;20083;-84
2023/07/31 07:19:06;;;;;;;2.55;1.15;;;;;;;;;;5007986;28;20018;-85
2023/07/31 07:21:32;;;;;;;2.88;1.42;;;;;;;;;;5013250;28;20118;-84
2023/07/31 07:23:57;;;;;;;3.10;1.58;;;;;;;;;;5006182;28;20391;-84
2023/07/31 07:26:22;;;;;;;2.22;1.40;;;;;;;;;;5028425;28;20391;-83
2023/07/31 07:28:48;;;;;;;3.00;1.23;;;;;;;;;;5012593;28;20293;-84
2023/07/31 07:31:13;;;;;;;3.92;1.40;;;;;;;;;;5007496;28;20113;-85
2023/07/31 07:33:38;;;;;;;5.28;2.22;;;;;;;;;;5031939;28;20094;-84
2023/07/31 07:36:05;;;;;;;5.05;1.58;;;;;;;;;;5006312;28;20121;-82
2023/07/31 07:38:31;;;;;;;3.80;1.50;;;;;;;;;;5029337;28;20029;-84
2023/07/31 07:40:57;;;;;;;3.97;1.40;;;;;;;;;;5013873;28;20079;-83
2023/07/31 07:43:22;;;;;;;5.32;1.75;;;;;;;;;;5023491;28;20040;-81
2023/07/31 07:45:47;;;;;;;6.47;1.63;;;;;;;;;;5025420;28;20025;-82
2023/07/31 07:48:12;;;;;;;5.70;1.63;;;;;;;;;;5030329;28;20100;-81
2023/07/31 07:50:38;;;;;;;3.00;1.60;;;;;;;;;;5035292;28;20037;-81
2023/07/31 07:53:04;;;;;;;2.25;1.25;;;;;;;;;;5024105;28;20718;-85
2023/07/31 07:55:29;;;;;;;3.22;1.30;;;;;;;;;;5024386;28;20498;-84
2023/07/31 07:57:54;;;;;;;1.92;1.30;;;;;;;;;;5023674;28;20049;-83
2023/07/31 08:00:20;;;;;;;3.28;1.50;;;;;;;;;;5011238;28;20506;-81
2023/07/31 08:02:45;;;;;;;3.85;1.42;;;;;;;;;;5025811;28;20040;-83
2023/07/31 08:05:10;;;;;;;5.18;1.67;;;;;;;;;;5010332;28;20065;-83
2023/07/31 08:07:36;;;;;;;4.13;1.75;;;;;;;;;;5010910;28;20487;-84
2023/07/31 08:10:02;;;;;;;5.03;1.40;;;;;;;;;;5013382;28;20099;-84
2023/07/31 08:12:27;;;;;;;2.95;1.55;;;;;;;;;;5011931;28;20550;-84
2023/07/31 08:14:52;;;;;;;2.53;1.45;;;;;;;;;;5024356;28;20045;-85
2023/07/31 08:17:18;;;;;;;4.25;1.90;;;;;;;;;;5005979;28;20037;-84
2023/07/31 08:19:44;;;;;;;4.82;1.15;;;;;;;;;;5030661;28;20029;-86
2023/07/31 08:22:09;;;;;;;4.20;1.45;;;;;;;;;;5031112;28;20025;-85
2023/07/31 08:24:34;;;;;;;4.13;1.60;;;;;;;;;;5024142;28;20026;-84
2023/07/31 08:27:00;;;;;;;4.50;1.67;;;;;;;;;;5026639;28;20029;-86
2023/07/31 08:29:25;;;;;;;7.00;1.50;;;;;;;;;;5024257;28;20033;-85
2023/07/31 08:31:51;;;;;;;2.28;1.33;;;;;;;;;;5035089;28;20044;-84
2023/07/31 08:34:16;;;;;;;4.20;1.58;;;;;;;;;;5017112;28;20056;-85
2023/07/31 08:36:42;;;;;;;2.80;1.55;;;;;;;;;;5030428;28;20517;-84
2023/07/31 08:39:07;;;;;;;4.95;1.85;;;;;;;;;;5021640;28;20675;-83
2023/07/31 08:41:37;;;;;;;2.88;1.55;;;;;;;;;;5033647;28;20032;-83
2023/07/31 08:44:03;;;;;;;2.30;1.58;;;;;;;;;;5017603;28;20120;-84
2023/07/31 08:46:30;;;;;;;6.78;1.73;;;;;;;;;;5013617;28;20052;-83
2023/07/31 08:48:55;;;;;;;6.63;1.60;;;;;;;;;;5019915;28;20026;-84
2023/07/31 08:51:20;;;;;;;4.60;1.73;;;;;;;;;;5036086;28;20040;-84
2023/07/31 08:53:49;;;;;;;4.32;1.70;;;;;;;;;;5036360;28;20113;-86
2023/07/31 08:56:17;;;;;;;3.78;2.00;;;;;;;;;;5015344;28;20054;-84
2023/07/31 08:58:43;;;;;;;6.45;1.75;;;;;;;;;;5034628;28;20018;-85
2023/07/31 09:01:10;;;;;;;3.00;1.42;;;;;;;;;;5034333;28;20403;-86
2023/07/31 09:03:37;;;;;;;2.83;1.70;;;;;;;;;;5014200;28;20053;-85
2023/07/31 09:06:06;;;;;;;4.40;1.60;;;;;;;;;;5024394;28;20030;-84
2023/07/31 09:08:34;;;;;;;6.38;1.60;;;;;;;;;;5008611;28;20025;-84
2023/07/31 09:11:03;;;;;;;5.10;1.70;;;;;;;;;;5011965;28;20037;-84
2023/07/31 09:13:29;;;;;;;3.65;1.90;;;;;;;;;;5028340;28;20021;-84
2023/07/31 09:15:55;;;;;;;5.43;1.75;;;;;;;;;;5026744;28;20025;-84
2023/07/31 09:18:22;;;;;;;3.78;1.58;;;;;;;;;;5007995;28;20028;-84
2023/07/31 09:21:01;;;;;;;5.68;1.85;;;;;;;;;;5023068;28;20021;-83
2023/07/31 09:23:40;;;;;;;2.58;1.40;;;;;;;;;;5006811;28;20498;-83
2023/07/31 09:26:05;;;;;;;3.45;1.52;;;;;;;;;;5029086;28;20033;-83
2023/07/31 09:28:31;;;;;;;7.45;1.90;;;;;;;;;;5032420;28;20039;-82
2023/07/31 09:30:56;;;;;;;5.03;1.80;;;;;;;;;;5022359;28;20025;-82
2023/07/31 09:33:22;;;;;;;4.57;1.33;;;;;;;;;;5030756;28;20026;-85
2023/07/31 09:35:51;;;;;;;6.07;1.65;;;;;;;;;;5026592;28;20476;-83
2023/07/31 09:38:16;;;;;;;4.78;1.77;;;;;;;;;;5023227;28;20033;-82
2023/07/31 09:40:44;;;;;;;4.88;1.52;;;;;;;;;;5017465;28;20033;-82
2023/07/31 09:43:23;;;;;;;7.72;1.60;;;;;;;;;;5038105;28;20029;-81
2023/07/31 09:45:56;;;;;;;2.65;1.65;;;;;;;;;;5029785;28;20037;-83
2023/07/31 09:48:25;;;;;;;4.75;1.77;;;;;;;;;;5014518;28;20044;-86
2023/07/31 09:50:50;;;;;;;3.25;1.60;;;;;;;;;;5029518;28;20040;-86
2023/07/31 09:53:19;;;;;;;5.80;1.83;;;;;;;;;;5038488;28;20030;-84
2023/07/31 09:55:44;;;;;;;4.30;1.70;;;;;;;;;;5036941;28;20084;-87
2023/07/31 09:58:11;;;;;;;4.75;1.80;;;;;;;;;;5037430;28;20025;-83
2023/07/31 10:00:37;;;;;;;6.15;1.90;;;;;;;;;;5038689;28;20022;-84
2023/07/31 10:03:08;;;;;;;3.60;1.70;;;;;;;;;;5036355;28;20116;-83
2023/07/31 10:05:36;;;;;;;3.83;1.88;;;;;;;;;;5011678;28;20057;-85
2023/07/31 10:08:01;;;;;;;2.97;1.90;;;;;;;;;;5015994;28;20029;-82
2023/07/31 10:10:28;;;;;;;4.38;1.75;;;;;;;;;;5021203;28;20108;-84
2023/07/31 10:12:55;;;;;;;4.60;2.08;;;;;;;;;;5034926;28;20028;-84
2023/07/31 10:15:21;;;;;;;2.53;1.63;;;;;;;;;;5023183;28;20032;-84
2023/07/31 10:17:48;;;;;;;3.60;1.60;;;;;;;;;;5031390;28;20105;-84
2023/07/31 10:20:16;;;;;;;3.45;1.63;;;;;;;;;;5027611;28;20025;-83
2023/07/31 10:22:42;;;;;;;2.53;1.58;;;;;;;;;;5025263;28;20656;-85
2023/07/31 10:25:09;;;;;;;5.43;1.60;;;;;;;;;;5032006;28;20493;-83
2023/07/31 10:27:35;;;;;;;3.80;2.10;;;;;;;;;;5030775;28;20083;-84
2023/07/31 10:30:03;;;;;;;3.85;1.77;;;;;;;;;;5030017;28;20021;-84
2023/07/31 10:32:30;;;;;;;3.05;1.77;;;;;;;;;;5035048;28;20033;-84
2023/07/31 10:34:55;;;;;;;4.18;1.70;;;;;;;;;;5010596;28;20438;-85
2023/07/31 10:37:29;;;;;;;3.47;1.98;;;;;;;;;;5033934;28;20510;-83
2023/07/31 10:39:58;;;;;;;4.28;1.67;;;;;;;;;;5022556;28;20026;-83
2023/07/31 10:42:31;;;;;;;5.68;1.95;;;;;;;;;;5029487;28;20021;-83
2023/07/31 10:45:09;;;;;;;5.95;1.90;;;;;;;;;;5038077;28;20032;-84
2023/07/31 10:48:02;;;;;;;5.20;1.92;;;;;;;;;;5014878;28;20040;-85
2023/07/31 10:50:29;;;;;;;4.63;2.40;;;;;;;;;;5006648;28;20491;-82
2023/07/31 10:52:56;;;;;;;4.38;1.90;;;;;;;;;;5018000;28;20474;-85
2023/07/31 10:55:31;;;;;;;3.10;1.52;;;;;;;;;;5015858;28;20479;-85
2023/07/31 10:58:05;;;;;;;2.33;1.52;;;;;;;;;;5019266;28;20573;-85
2023/07/31 11:00:31;;;;;;;4.00;1.65;;;;;;;;;;5037032;28;20094;-85
2023/07/31 11:03:11;;;;;;;5.03;1.90;;;;;;;;;;5025037;28;20438;-85
2023/07/31 11:05:45;;;;;;;4.68;1.83;;;;;;;;;;5029001;28;20087;-86
2023/07/31 11:08:16;;;;;;;3.35;1.88;;;;;;;;;;5026012;28;20041;-83
2023/07/31 11:10:43;;;;;;;4.45;1.85;;;;;;;;;;5032628;28;20048;-83
2023/07/31 11:13:08;;;;;;;2.38;1.60;;;;;;;;;;5023452;28;20536;-83
2023/07/31 11:15:33;;;;;;;5.93;2.15;;;;;;;;;;5033666;28;20171;-83
2023/07/31 11:18:03;;;;;;;4.03;1.95;;;;;;;;;;5032616;28;20386;-84
2023/07/31 11:20:32;;;;;;;3.42;1.67;;;;;;;;;;5015029;28;20029;-85
2023/07/31 11:23:07;;;;;;;7.35;2.15;;;;;;;;;;5023100;28;20033;-84
2023/07/31 11:25:33;;;;;;;4.35;2.00;;;;;;;;;;5022421;28;20025;-84
2023/07/31 11:28:07;;;;;;;5.68;2.00;;;;;;;;;;5022859;28;20083;-83
2023/07/31 11:30:33;;;;;;;4.95;2.25;;;;;;;;;;5023098;28;20037;-83
2023/07/31 11:33:00;;;;;;;3.50;2.05;;;;;;;;;;5016433;28;20029;-81
2023/07/31 11:35:34;;;;;;;5.88;2.15;;;;;;;;;;5021601;28;20109;-83
2023/07/31 11:38:00;;;;;;;3.70;1.90;;;;;;;;;;5022244;28;20028;-83
2023/07/31 11:40:31;;;;;;;4.07;2.05;;;;;;;;;;5022315;28;20112;-84
2023/07/31 11:42:57;;;;;;;5.67;1.90;;;;;;;;;;5024322;28;20055;-83
2023/07/31 11:45:26;;;;;;;3.75;1.75;;;;;;;;;;5023022;28;20386;-83
2023/07/31 11:47:52;;;;;;;4.57;1.73;;;;;;;;;;5022600;28;20022;-83
2023/07/31 11:50:18;;;;;;;3.33;1.88;;;;;;;;;;5034755;28;20145;-83
2023/07/31 11:52:45;;;;;;;7.53;2.72;;;;;;;;;;5031262;28;20564;-82
2023/07/31 11:55:12;;;;;;;5.45;2.13;;;;;;;;;;5027761;28;20659;-80
2023/07/31 11:57:40;;;;;;;4.18;1.85;;;;;;;;;;5025837;28;20085;-82
2023/07/31 12:00:08;;;;;;;4.80;1.98;;;;;;;;;;5032992;28;20021;-82
2023/07/31 12:02:34;;;;;;;4.70;2.10;;;;;;;;;;5014544;28;20032;-82
2023/07/31 12:04:59;;;;;;;3.30;2.00;;;;;;;;;;5027607;28;20018;-82
2023/07/31 12:07:25;;;;;;;7.57;2.20;;;;;;;;;;5034718;28;20142;-82
2023/07/31 12:09:52;;;;;;;7.32;2.10;;;;;;;;;;5029604;28;20017;-82
2023/07/31 12:12:22;;;;;;;2.92;1.63;;;;;;;;;;5031416;28;20030;-83
2023/07/31 12:14:48;;;;;;;3.67;2.05;;;;;;;;;;5023005;28;20030;-82
2023/07/31 12:17:14;;;;;;;3.65;1.75;;;;;;;;;;5032178;28;20451;-82
2023/07/31 12:19:40;;;;;;;2.88;1.98;;;;;;;;;;5037926;28;20089;-82
2023/07/31 12:22:16;;;;;;;2.75;1.80;;;;;;;;;;5035726;28;20056;-83
2023/07/31 12:24:44;;;;;;;5.10;2.38;;;;;;;;;;5037487;28;20079;-82
2023/07/31 12:27:14;;;;;;;3.75;1.98;;;;;;;;;;5034595;28;20032;-82
2023/07/31 12:29:44;;;;;;;5.50;2.00;;;;;;;;;;5037738;28;20032;-83
2023/07/31 12:32:20;;;;;;;5.70;2.15;;;;;;;;;;5034370;28;20527;-82
2023/07/31 12:34:45;;;;;;;4.63;2.10;;;;;;;;;;5036254;28;20465;-82
2023/07/31 12:37:11;;;;;;;5.13;1.70;;;;;;;;;;5035280;28;20037;-82
2023/07/31 12:39:36;;;;;;;4.60;1.67;;;;;;;;;;5032980;28;20096;-84
2023/07/31 12:42:02;;;;;;;5.35;2.30;;;;;;;;;;5026574;28;20045;-80
2023/07/31 12:44:27;;;;;;;4.05;1.88;;;;;;;;;;5001535;28;20029;-83
2023/07/31 12:46:52;;;;;;;2.42;1.85;;;;;;;;;;5036894;28;20021;-84
2023/07/31 12:49:18;;;;;;;2.95;1.83;;;;;;;;;;5036784;28;20021;-83
2023/07/31 12:51:43;;;;;;;3.17;2.17;;;;;;;;;;5038375;28;20040;-83
2023/07/31 12:54:08;;;;;;;3.40;1.90;;;;;;;;;;5037065;28;20025;-83
2023/07/31 12:56:34;;;;;;;4.07;2.17;;;;;;;;;;5036534;28;20549;-82
2023/07/31 12:58:59;;;;;;;3.25;1.67;;;;;;;;;;5028574;28;20026;-83
2023/07/31 13:01:24;;;;;;;3.25;1.98;;;;;;;;;;5036405;28;20022;-83
2023/07/31 13:03:50;;;;;;;4.28;1.85;;;;;;;;;;5033844;28;20080;-82
2023/07/31 13:06:15;;;;;;;1.85;1.50;;;;;;;;;;5036335;28;20474;-83
2023/07/31 13:08:40;;;;;;;4.63;2.10;;;;;;;;;;5032355;28;20047;-82
2023/07/31 13:11:06;;;;;;;3.95;1.75;;;;;;;;;;5027537;28;20115;-81
2023/07/31 13:13:31;;;;;;;2.80;2.00;;;;;;;;;;5017520;28;20040;-83
2023/07/31 13:15:56;;;;;;;4.55;2.10;;;;;;;;;;5018727;28;20100;-81
2023/07/31 13:18:22;;;;;;;4.57;1.92;;;;;;;;;;5021849;28;20036;-82
2023/07/31 13:20:47;;;;;;;8.48;2.08;;;;;;;;;;5027996;28;20017;-82
2023/07/31 13:23:12;;;;;;;5.13;1.98;;;;;;;;;;5035218;28;20030;-82
2023/07/31 13:25:38;;;;;;;4.13;1.92;;;;;;;;;;5032558;28;20467;-82
2023/07/31 13:28:03;;;;;;;2.50;1.80;;;;;;;;;;5034199;28;20017;-83
2023/07/31 13:30:28;;;;;;;5.15;2.00;;;;;;;;;;5035099;28;20037;-82
2023/07/31 13:32:54;;;;;;;4.13;2.10;;;;;;;;;;5026364;28;20044;-82
2023/07/31 13:35:19;;;;;;;3.78;2.00;;;;;;;;;;5030409;28;20026;-82
2023/07/31 13:37:44;;;;;;;4.07;1.90;;;;;;;;;;5030941;28;20464;-82
2023/07/31 13:40:10;;;;;;;3.63;1.90;;;;;;;;;;5030727;28;20052;-83
2023/07/31 13:42:35;;;;;;;3.13;1.60;;;;;;;;;;5032114;28;20029;-83
2023/07/31 13:45:01;;;;;;;4.82;1.80;;;;;;;;;;5016794;28;20036;-82
2023/07/31 13:47:26;;;;;;;7.10;2.00;;;;;;;;;;5035211;28;20035;-83
2023/07/31 13:49:51;;;;;;;2.05;1.70;;;;;;;;;;5015119;28;20103;-83
2023/07/31 13:52:17;;;;;;;4.13;1.92;;;;;;;;;;5028172;28;20034;-84
2023/07/31 13:54:42;;;;;;;6.30;1.83;;;;;;;;;;5028391;28;20018;-83
2023/07/31 13:57:08;;;;;;;6.05;2.08;;;;;;;;;;5032549;28;20360;-83
2023/07/31 13:59:33;;;;;;;2.33;1.70;;;;;;;;;;5029783;28;20040;-84
2023/07/31 14:01:59;;;;;;;5.63;2.63;;;;;;;;;;5033870;28;20067;-83
2023/07/31 14:04:26;;;;;;;5.15;1.67;;;;;;;;;;5008719;28;20049;-83
2023/07/31 14:06:52;;;;;;;4.63;2.30;;;;;;;;;;5035175;28;20053;-83
2023/07/31 14:09:18;;;;;;;3.72;1.77;;;;;;;;;;5026338;28;20038;-84
2023/07/31 14:11:43;;;;;;;3.22;1.70;;;;;;;;;;5033778;28;20479;-83
2023/07/31 14:14:09;;;;;;;4.30;1.65;;;;;;;;;;5025493;28;20036;-83
2023/07/31 14:16:35;;;;;;;2.42;1.60;;;;;;;;;;5031507;28;20029;-83
2023/07/31 14:19:00;;;;;;;3.28;1.77;;;;;;;;;;5009696;28;20024;-84
2023/07/31 14:21:26;;;;;;;4.25;1.75;;;;;;;;;;5035142;28;20112;-83
2023/07/31 14:23:51;;;;;;;6.80;2.08;;;;;;;;;;5030689;28;20100;-82
2023/07/31 14:26:16;;;;;;;5.13;1.73;;;;;;;;;;5029906;28;20033;-82
2023/07/31 14:28:42;;;;;;;2.97;1.75;;;;;;;;;;5031326;28;20064;-83
2023/07/31 14:31:08;;;;;;;4.13;2.10;;;;;;;;;;5027588;28;20045;-83
2023/07/31 14:33:42;;;;;;;4.35;2.30;;;;;;;;;;5002658;28;20040;-84
2023/07/31 14:36:07;;;;;;;3.58;1.90;;;;;;;;;;5026584;28;20075;-81
2023/07/31 14:38:42;;;;;;;3.10;1.75;;;;;;;;;;5033253;28;20025;-82